Time;durP1;ratioP1;P1;durP2;ratioP2;P2;SDS_P1;SDS_P2;PMS_P1;PMS_P2;Temp;Humidity;BMP_temperature;BMP_pressure;BME280_temperature;BME280_humidity;BME280_pressure;Samples;Min_cycle;Max_cycle;Signal;HPM_P1;HPM_P2
2024/02/02 00:02:15;;;;;;;11.90;8.70;;;;;;;1.81;83.41;99378.95;106191;1266;70072;-77
2024/02/02 00:04:42;;;;;;;10.70;7.90;;;;;;;1.75;83.49;99381.46;105572;1262;70093;-78
2024/02/02 00:07:10;;;;;;;13.90;9.70;;;;;;;1.68;83.56;99374.73;105408;1262;72698;-78
2024/02/02 00:09:38;;;;;;;13.30;7.90;;;;;;;1.62;83.64;99369.11;105534;1265;257743;-77
2024/02/02 00:12:10;;;;;;;11.00;7.80;;;;;;;1.64;83.65;99369.77;105782;1260;59291;-77
2024/02/02 00:14:38;;;;;;;8.70;6.80;;;;;;;1.67;83.38;99369.36;105333;1259;71217;-76
2024/02/02 00:17:06;;;;;;;11.40;8.20;;;;;;;1.62;83.52;99368.55;105730;1253;70275;-76
2024/02/02 00:19:34;;;;;;;12.00;7.50;;;;;;;1.53;83.60;99366.26;105485;1261;73180;-79
2024/02/02 00:22:02;;;;;;;10.40;7.00;;;;;;;1.48;83.65;99365.83;105656;1253;59637;-78
2024/02/02 00:24:29;;;;;;;13.50;7.00;;;;;;;1.51;83.63;99366.45;105697;1255;60241;-77
2024/02/02 00:26:57;;;;;;;12.30;8.20;;;;;;;1.48;83.75;99368.07;105858;1253;73949;-77
2024/02/02 00:29:24;;;;;;;9.90;7.10;;;;;;;1.39;83.89;99365.10;105684;1253;70111;-76
2024/02/02 00:31:52;;;;;;;10.60;6.60;;;;;;;1.32;84.12;99375.61;105788;1255;72663;-77
2024/02/02 00:34:20;;;;;;;8.30;6.20;;;;;;;1.34;84.06;99376.97;105946;1253;60884;-77
2024/02/02 00:36:47;;;;;;;11.60;6.10;;;;;;;1.37;84.08;99376.05;105813;1258;59612;-77
2024/02/02 00:39:15;;;;;;;11.00;6.70;;;;;;;1.33;84.16;99378.13;105741;1260;73150;-75
2024/02/02 00:41:43;;;;;;;10.90;6.70;;;;;;;1.26;84.24;99380.02;105791;1253;69345;-76
2024/02/02 00:44:10;;;;;;;10.10;6.00;;;;;;;1.22;84.46;99379.13;106020;1253;71130;-77
2024/02/02 00:46:38;;;;;;;10.70;6.20;;;;;;;1.27;84.52;99374.53;106467;1253;61087;-74
2024/02/02 00:49:05;;;;;;;9.10;6.10;;;;;;;1.28;84.48;99380.10;106587;1253;59622;-77
2024/02/02 00:51:33;;;;;;;8.00;5.20;;;;;;;1.23;84.62;99380.11;108473;1253;71790;-78
2024/02/02 00:54:01;;;;;;;49.90;26.30;;;;;;;1.19;84.54;99380.59;108336;1253;68726;-77
2024/02/02 00:56:28;;;;;;;8.90;6.10;;;;;;;1.25;84.53;99375.07;106771;1258;71388;-79
2024/02/02 00:58:56;;;;;;;8.80;5.30;;;;;;;1.32;84.56;99371.39;106133;1253;59751;-77
2024/02/02 01:01:24;;;;;;;9.10;5.90;;;;;;;1.31;84.28;99375.30;106094;1258;59590;-76
2024/02/02 01:03:51;;;;;;;11.90;5.60;;;;;;;1.27;84.49;99375.63;105975;1253;73056;-77
2024/02/02 01:06:19;;;;;;;9.90;6.20;;;;;;;1.22;84.50;99371.32;106970;1253;68983;-76
2024/02/02 01:08:47;;;;;;;9.30;5.50;;;;;;;1.26;84.32;99370.13;107107;1254;71294;-77
2024/02/02 01:11:14;;;;;;;10.10;5.30;;;;;;;1.31;84.03;99370.42;106386;1253;59648;-77
2024/02/02 01:13:42;;;;;;;10.00;6.20;;;;;;;1.27;84.16;99366.52;105880;1253;60128;-76
2024/02/02 01:16:10;;;;;;;7.90;6.20;;;;;;;1.22;84.32;99363.48;106004;1253;73072;-78
2024/02/02 01:18:37;;;;;;;9.40;5.70;;;;;;;1.16;84.47;99367.86;106072;1255;68323;-77
2024/02/02 01:21:05;;;;;;;11.80;5.50;;;;;;;1.19;84.27;99364.56;105506;1258;71765;-78
2024/02/02 01:23:33;;;;;;;8.50;5.40;;;;;;;1.23;84.09;99365.11;105612;1253;59720;-75
2024/02/02 01:26:00;;;;;;;11.10;5.20;;;;;;;1.19;84.26;99365.55;105644;1253;62354;-76
2024/02/02 01:28:28;;;;;;;7.50;4.60;;;;;;;1.13;84.31;99365.33;105750;1258;73173;-77
2024/02/02 01:30:55;;;;;;;9.50;5.00;;;;;;;1.10;84.38;99366.11;105588;1254;70280;-76
2024/02/02 01:33:23;;;;;;;9.50;4.90;;;;;;;1.14;84.43;99368.23;105878;1258;71511;-77
2024/02/02 01:35:51;;;;;;;9.60;5.70;;;;;;;1.18;84.21;99367.94;105838;1253;59539;-75
2024/02/02 01:38:19;;;;;;;9.20;5.50;;;;;;;1.15;84.28;99370.08;105841;1258;59621;-76
2024/02/02 01:40:46;;;;;;;9.30;4.40;;;;;;;1.11;84.44;99371.28;105710;1254;71919;-77
2024/02/02 01:43:14;;;;;;;7.70;4.30;;;;;;;1.12;84.38;99372.02;105814;1258;70048;-76
2024/02/02 01:45:41;;;;;;;8.90;4.20;;;;;;;1.18;84.26;99375.91;105864;1253;72957;-77
2024/02/02 01:48:09;;;;;;;7.00;4.60;;;;;;;1.18;84.30;99376.98;106066;1256;59725;-76
2024/02/02 01:50:36;;;;;;;8.10;4.40;;;;;;;1.14;84.46;99378.52;107948;1253;59523;-75
2024/02/02 01:53:04;;;;;;;8.20;4.90;;;;;;;1.13;84.47;99381.71;108753;1253;71693;-75
2024/02/02 01:55:31;;;;;;;9.80;4.50;;;;;;;1.19;84.35;99382.48;107539;1253;68738;-75
2024/02/02 01:57:59;;;;;;;7.70;4.80;;;;;;;1.32;84.07;99387.45;105824;1253;71513;-76
2024/02/02 02:00:27;;;;;;;26.40;16.60;;;;;;;1.38;83.92;99383.79;106107;1253;59738;-77
2024/02/02 02:02:54;;;;;;;12.10;6.90;;;;;;;1.39;83.98;99381.15;105874;1253;59820;-77
2024/02/02 02:05:22;;;;;;;8.90;5.00;;;;;;;1.40;83.82;99382.66;105697;1253;71813;-75
2024/02/02 02:07:50;;;;;;;8.20;4.70;;;;;;;1.43;83.68;99386.05;105783;1253;69976;-75
2024/02/02 02:10:17;;;;;;;10.50;4.90;;;;;;;1.53;83.21;99375.17;105823;1253;73415;-78
2024/02/02 02:12:45;;;;;;;10.60;5.50;;;;;;;1.60;82.81;99376.75;105803;1257;59628;-77
2024/02/02 02:17:38;;;;;;;12.90;4.80;;;;;;;1.59;82.51;99382.42;105886;1253;59819;-76
2024/02/02 02:20:10;;;;;;;18.00;10.50;;;;;;;1.59;82.34;99380.33;105909;1253;70637;-78
2024/02/02 02:22:38;;;;;;;12.00;6.60;;;;;;;1.66;81.98;99378.04;105842;1261;72053;-78
2024/02/02 02:25:06;;;;;;;13.90;5.00;;;;;;;1.75;81.44;99384.80;105834;1258;59579;-78
2024/02/02 02:27:34;;;;;;;10.10;4.70;;;;;;;1.75;81.23;99382.55;105602;1261;60016;-78
2024/02/02 02:30:02;;;;;;;8.90;4.50;;;;;;;1.71;81.27;99379.52;105829;1253;73021;-78
2024/02/02 02:32:29;;;;;;;11.70;4.90;;;;;;;1.70;81.20;99381.36;105680;1253;70205;-77
2024/02/02 02:34:57;;;;;;;11.00;4.60;;;;;;;1.70;80.97;99378.36;105740;1258;71498;-77
2024/02/02 02:37:25;;;;;;;9.70;4.00;;;;;;;1.79;80.74;99383.64;105955;1256;61005;-76
2024/02/02 02:39:52;;;;;;;9.10;5.10;;;;;;;1.80;80.53;99391.91;105898;1253;60074;-76
2024/02/02 02:42:20;;;;;;;8.20;4.50;;;;;;;1.77;80.43;99390.95;105822;1256;73034;-79
2024/02/02 02:44:47;;;;;;;9.30;4.60;;;;;;;1.73;80.38;99393.73;107578;1253;70503;-76
2024/02/02 02:47:15;;;;;;;9.30;4.80;;;;;;;1.73;80.63;99399.30;108334;1252;71411;-78
2024/02/02 02:49:42;;;;;;;9.80;3.90;;;;;;;1.82;80.36;99401.04;108164;1253;59597;-76
2024/02/02 02:52:11;;;;;;;8.50;4.30;;;;;;;1.91;80.08;99404.85;109076;1252;58765;-76
2024/02/02 02:54:38;;;;;;;8.60;4.30;;;;;;;1.92;80.00;99405.80;108272;1254;71830;-76
2024/02/02 02:57:06;;;;;;;9.40;4.60;;;;;;;1.92;79.94;99406.56;107000;1253;70447;-77
2024/02/02 02:59:33;;;;;;;7.40;4.10;;;;;;;1.90;79.73;99407.72;105979;1256;71547;-76
2024/02/02 03:02:01;;;;;;;9.30;4.10;;;;;;;1.94;79.74;99408.60;106193;1256;59922;-77
2024/02/02 03:04:28;;;;;;;8.80;3.90;;;;;;;2.04;79.55;99409.95;105729;1253;59714;-77
2024/02/02 03:06:56;;;;;;;11.60;5.20;;;;;;;2.04;79.31;99409.27;105807;1253;71795;-75
2024/02/02 03:09:24;;;;;;;8.10;5.30;;;;;;;1.99;79.25;99409.98;105631;1253;70641;-77
2024/02/02 03:11:52;;;;;;;11.30;4.90;;;;;;;1.93;79.06;99407.48;105796;1258;72674;-77
2024/02/02 03:14:20;;;;;;;7.30;4.20;;;;;;;1.86;78.91;99400.56;105803;1253;59727;-77
2024/02/02 03:16:47;;;;;;;9.50;4.50;;;;;;;1.85;78.84;99402.23;105792;1253;60152;-75
2024/02/02 03:19:15;;;;;;;9.00;4.40;;;;;;;1.87;78.74;99404.96;105812;1253;71543;-76
2024/02/02 03:21:43;;;;;;;9.40;4.70;;;;;;;1.83;78.58;99408.61;105825;1254;68325;-75
2024/02/02 03:24:10;;;;;;;10.70;5.20;;;;;;;1.75;78.85;99410.48;105735;1253;73753;-76
2024/02/02 03:26:38;;;;;;;9.30;4.60;;;;;;;1.67;78.75;99413.37;105799;1256;59753;-75
2024/02/02 03:29:06;;;;;;;11.60;4.80;;;;;;;1.60;78.97;99412.52;105855;1258;60465;-78
2024/02/02 03:31:33;;;;;;;8.80;3.90;;;;;;;1.60;79.13;99410.45;106001;1258;73423;-78
2024/02/02 03:34:01;;;;;;;11.00;4.80;;;;;;;1.64;79.07;99411.52;105870;1259;69249;-79
2024/02/02 03:36:28;;;;;;;7.60;4.30;;;;;;;1.60;79.27;99413.74;105809;1257;71445;-79
2024/02/02 03:38:56;;;;;;;11.30;4.90;;;;;;;1.53;79.44;99417.09;105773;1257;59678;-76
2024/02/02 03:41:23;;;;;;;10.20;5.20;;;;;;;1.46;79.62;99417.98;105775;1258;59536;-78
2024/02/02 03:43:53;;;;;;;11.20;5.60;;;;;;;1.43;79.71;99427.77;106117;1258;73912;-79
2024/02/02 03:46:21;;;;;;;8.20;4.70;;;;;;;1.49;79.73;99430.09;106487;1258;69191;-76
2024/02/02 03:48:49;;;;;;;11.40;4.60;;;;;;;1.48;79.64;99432.14;107910;1253;71846;-79
2024/02/02 03:51:17;;;;;;;8.50;4.60;;;;;;;1.43;79.71;99434.30;107730;1253;59710;-77
2024/02/02 03:53:44;;;;;;;11.40;4.90;;;;;;;1.38;79.70;99440.40;107736;1258;59576;-78
2024/02/02 03:56:12;;;;;;;11.00;5.20;;;;;;;1.32;79.79;99439.05;106403;1261;73097;-78
2024/02/02 03:58:39;;;;;;;9.60;4.50;;;;;;;1.34;79.75;99437.69;106459;1254;68869;-79
2024/02/02 04:01:06;;;;;;;8.90;4.40;;;;;;;1.42;79.49;99439.90;106034;1254;72842;-78
2024/02/02 04:03:34;;;;;;;8.60;4.20;;;;;;;1.40;79.44;99447.42;105911;1256;60467;-76
2024/02/02 04:06:02;;;;;;;10.90;4.10;;;;;;;1.33;79.43;99453.51;105934;1253;60496;-78
2024/02/02 04:08:30;;;;;;;9.30;5.00;;;;;;;1.27;79.40;99454.11;105801;1253;72848;-78
2024/02/02 04:10:58;;;;;;;24.10;14.60;;;;;;;1.22;79.43;99458.15;105831;1253;69965;-78
2024/02/02 04:13:25;;;;;;;12.40;5.20;;;;;;;1.18;79.36;99459.88;105795;1255;72584;-78
2024/02/02 04:15:53;;;;;;;10.60;4.80;;;;;;;1.22;78.97;99460.77;105722;1254;60476;-77
2024/02/02 04:18:21;;;;;;;9.20;3.90;;;;;;;1.28;78.41;99466.42;105849;1253;60553;-77
2024/02/02 04:20:48;;;;;;;9.10;4.00;;;;;;;1.25;78.23;99466.62;105956;1258;73887;-78
2024/02/02 04:23:16;;;;;;;8.00;4.10;;;;;;;1.21;78.03;99470.63;106063;1259;69117;-77
2024/02/02 04:25:44;;;;;;;9.30;4.30;;;;;;;1.17;77.92;99482.78;105940;1253;72676;-77
2024/02/02 04:28:11;;;;;;;8.60;3.50;;;;;;;1.14;77.90;99484.41;105832;1256;60534;-76
2024/02/02 04:30:39;;;;;;;11.10;3.80;;;;;;;1.13;77.83;99482.36;105791;1256;60277;-77
2024/02/02 04:33:06;;;;;;;10.40;3.90;;;;;;;1.22;77.88;99490.81;105764;1258;73258;-76
2024/02/02 04:35:34;;;;;;;6.50;3.40;;;;;;;1.24;77.67;99487.98;105922;1259;69000;-78
2024/02/02 04:38:03;;;;;;;6.30;3.30;;;;;;;1.22;77.73;99493.96;105710;1260;72681;-77
2024/02/02 04:40:30;;;;;;;9.50;3.30;;;;;;;1.19;77.69;99497.85;105797;1258;60425;-78
2024/02/02 04:42:58;;;;;;;8.80;3.90;;;;;;;1.17;77.52;99494.98;106156;1259;60473;-78
2024/02/02 04:45:25;;;;;;;10.90;3.70;;;;;;;1.16;77.27;99501.03;106318;1254;73786;-76
2024/02/02 04:47:53;;;;;;;9.60;3.40;;;;;;;1.15;76.99;99505.59;106086;1261;70204;-78
2024/02/02 04:50:22;;;;;;;7.80;3.30;;;;;;;1.22;76.37;99506.47;108431;1255;73518;-77
2024/02/02 04:52:49;;;;;;;10.50;3.70;;;;;;;1.32;75.95;99503.63;108934;1253;59388;-77
2024/02/02 04:55:17;;;;;;;8.00;3.00;;;;;;;1.33;75.85;99512.80;107097;1254;59234;-78
2024/02/02 04:57:44;;;;;;;9.00;3.00;;;;;;;1.31;75.62;99521.33;106353;1256;73890;-77
2024/02/02 05:00:13;;;;;;;8.90;3.60;;;;;;;1.28;75.32;99521.90;106108;1259;68727;-77
2024/02/02 05:02:41;;;;;;;11.80;4.00;;;;;;;1.23;75.24;99520.20;105964;1255;71390;-77
2024/02/02 05:05:09;;;;;;;11.10;3.20;;;;;;;1.16;75.13;99524.50;105789;1258;60552;-77
2024/02/02 05:07:36;;;;;;;10.60;2.90;;;;;;;1.11;75.12;99526.50;105875;1258;60367;-77
2024/02/02 05:10:05;;;;;;;8.00;3.20;;;;;;;1.06;74.88;99527.25;105989;1260;73830;-79
2024/02/02 05:12:33;;;;;;;8.20;3.30;;;;;;;1.07;74.42;99529.91;107242;1259;68731;-77
2024/02/02 05:15:02;;;;;;;10.70;2.90;;;;;;;1.13;74.26;99532.95;108601;1256;71797;-78
2024/02/02 05:17:30;;;;;;;10.60;2.70;;;;;;;1.11;74.35;99533.42;107804;1257;60494;-78
2024/02/02 05:19:58;;;;;;;9.50;2.70;;;;;;;1.09;74.21;99538.00;105859;1259;60587;-78
2024/02/02 05:22:25;;;;;;;6.70;2.50;;;;;;;1.08;73.52;99538.08;105828;1259;72945;-79
2024/02/02 05:24:53;;;;;;;9.00;3.10;;;;;;;1.06;73.80;99542.75;105838;1253;70304;-77
2024/02/02 05:27:20;;;;;;;6.50;3.10;;;;;;;1.05;73.81;99547.67;105642;1260;71115;-77
2024/02/02 05:29:48;;;;;;;8.50;2.70;;;;;;;1.04;73.62;99552.63;105963;1256;60659;-80
2024/02/02 05:32:16;;;;;;;9.40;2.90;;;;;;;1.03;73.52;99560.95;105811;1259;60481;-81
2024/02/02 05:34:44;;;;;;;4.90;2.60;;;;;;;1.03;73.37;99565.11;105706;1260;72576;-83
2024/02/02 05:37:11;;;;;;;6.50;2.40;;;;;;;1.13;73.42;99570.12;106088;1254;69336;-81
2024/02/02 05:39:39;;;;;;;7.30;3.40;;;;;;;1.25;73.26;99567.33;105805;1258;72659;-79
2024/02/02 05:42:07;;;;;;;8.80;3.30;;;;;;;1.29;73.10;99570.70;105903;1259;60564;-79
2024/02/02 05:44:34;;;;;;;7.80;2.70;;;;;;;1.31;72.90;99572.33;106400;1259;60251;-78
2024/02/02 05:47:02;;;;;;;6.60;2.40;;;;;;;1.33;72.14;99572.02;106305;1254;73889;-79
2024/02/02 05:49:29;;;;;;;8.90;3.10;;;;;;;1.33;72.14;99573.19;108551;1253;67766;-81
2024/02/02 05:51:59;;;;;;;8.70;2.80;;;;;;;1.35;72.16;99576.20;109234;1255;71149;-82
2024/02/02 05:54:30;;;;;;;7.00;3.40;;;;;;;1.37;71.96;99576.05;107573;1257;59354;-80
2024/02/02 05:56:57;;;;;;;9.30;3.00;;;;;;;1.36;71.73;99581.88;107132;1252;60365;-81
2024/02/02 05:59:25;;;;;;;9.00;2.80;;;;;;;1.35;71.78;99583.15;107188;1253;73807;-80
2024/02/02 06:01:52;;;;;;;8.20;3.00;;;;;;;1.41;71.60;99585.55;106267;1258;69525;-78
2024/02/02 06:04:20;;;;;;;7.90;3.20;;;;;;;1.52;71.65;99585.45;106046;1253;71754;-80
2024/02/02 06:06:48;;;;;;;12.70;3.80;;;;;;;1.53;71.50;99587.23;106129;1259;60439;-78
2024/02/02 06:09:15;;;;;;;8.50;3.80;;;;;;;1.50;71.53;99589.39;106200;1258;60502;-77
2024/02/02 06:11:43;;;;;;;8.90;3.80;;;;;;;1.49;71.51;99591.44;107301;1259;72550;-81
2024/02/02 06:14:10;;;;;;;11.70;4.40;;;;;;;1.48;71.50;99596.05;106376;1258;70456;-81
2024/02/02 06:16:38;;;;;;;11.60;3.80;;;;;;;1.48;71.31;99602.85;106281;1257;72489;-81
2024/02/02 06:19:05;;;;;;;10.00;3.90;;;;;;;1.45;71.38;99608.77;106575;1258;60437;-79
2024/02/02 06:21:33;;;;;;;9.50;3.50;;;;;;;1.42;71.35;99606.21;106376;1257;60023;-78
2024/02/02 06:24:01;;;;;;;11.00;3.70;;;;;;;1.39;71.26;99609.60;106116;1258;73175;-77
2024/02/02 06:26:29;;;;;;;7.50;3.50;;;;;;;1.33;71.13;99611.41;106178;1259;70854;-79
2024/02/02 06:28:56;;;;;;;11.10;3.10;;;;;;;1.27;71.23;99614.31;106241;1259;71439;-80
2024/02/02 06:31:25;;;;;;;10.00;2.90;;;;;;;1.30;71.16;99614.07;106317;1258;60848;-80
2024/02/02 06:33:53;;;;;;;4.40;2.50;;;;;;;1.36;70.96;99618.87;106382;1258;60354;-81
2024/02/02 06:36:26;;;;;;;9.70;3.10;;;;;;;1.35;71.15;99620.66;106295;1254;73794;-78
2024/02/02 06:38:57;;;;;;;11.10;3.30;;;;;;;1.34;70.94;99623.71;106115;1253;70302;-79
2024/02/02 06:41:25;;;;;;;7.40;3.50;;;;;;;1.34;70.73;99626.52;105997;1258;71147;-80
2024/02/02 06:43:52;;;;;;;7.50;3.00;;;;;;;1.32;70.73;99629.98;106141;1254;60560;-79
2024/02/02 06:46:20;;;;;;;10.70;3.20;;;;;;;1.30;70.72;99631.86;106459;1253;60524;-77
2024/02/02 06:48:47;;;;;;;8.60;3.40;;;;;;;1.29;71.03;99632.58;108196;1253;73949;-78
2024/02/02 06:51:15;;;;;;;10.60;3.50;;;;;;;1.30;70.87;99632.58;107957;1254;68915;-79
2024/02/02 06:53:44;;;;;;;10.50;3.10;;;;;;;1.36;71.00;99631.45;107509;1253;72907;-79
2024/02/02 06:56:37;;;;;;;8.70;3.30;;;;;;;1.49;71.02;99635.70;106492;1258;61185;-79
2024/02/02 06:59:05;;;;;;;10.10;3.80;;;;;;;1.56;70.86;99639.36;106985;1253;60361;-78
2024/02/02 07:01:34;;;;;;;9.70;3.50;;;;;;;1.60;70.86;99636.17;107593;1256;72665;-77
2024/02/02 07:04:03;;;;;;;9.20;3.80;;;;;;;1.65;70.58;99639.27;106816;1257;70118;-77
2024/02/02 07:06:32;;;;;;;7.60;3.60;;;;;;;1.71;70.51;99640.54;106176;1257;71339;-78
2024/02/02 07:09:05;;;;;;;9.20;3.50;;;;;;;1.74;70.35;99640.52;105773;1259;60557;-78
2024/02/02 07:11:58;;;;;;;10.50;4.00;;;;;;;1.76;70.23;99643.30;106007;1252;60563;-77
2024/02/02 07:14:46;;;;;;;10.50;4.10;;;;;;;1.77;70.17;99642.52;105832;1259;73030;-77
2024/02/02 07:17:17;;;;;;;9.70;3.20;;;;;;;1.77;70.39;99645.30;105850;1259;68288;-78
2024/02/02 07:19:45;;;;;;;11.60;3.70;;;;;;;1.77;70.29;99646.19;105990;1258;72772;-77
2024/02/02 07:22:31;;;;;;;10.30;3.80;;;;;;;1.86;70.40;99643.85;106030;1253;60841;-77
2024/02/02 07:24:59;;;;;;;8.40;3.10;;;;;;;1.99;70.54;99641.84;105902;1259;60340;-78
2024/02/02 07:27:42;;;;;;;8.40;3.10;;;;;;;1.99;70.36;99647.04;105818;1257;73532;-77
2024/02/02 07:30:30;;;;;;;8.80;4.10;;;;;;;1.95;69.89;99649.60;105890;1257;69397;-78
2024/02/02 07:32:59;;;;;;;7.20;2.90;;;;;;;1.91;70.31;99655.30;105942;1253;72811;-77
2024/02/02 07:35:35;;;;;;;11.60;4.20;;;;;;;1.91;70.51;99656.52;105970;1254;61500;-78
2024/02/02 07:38:06;;;;;;;8.30;3.10;;;;;;;1.93;70.39;99661.43;106050;1259;60920;-79
2024/02/02 07:40:41;;;;;;;9.70;4.00;;;;;;;1.95;70.43;99660.11;106045;1254;75939;-79
2024/02/02 07:43:09;;;;;;;10.30;3.80;;;;;;;1.95;70.52;99655.02;106072;1260;69355;-77
2024/02/02 07:45:36;;;;;;;8.00;3.50;;;;;;;1.96;70.69;99657.08;106074;1257;72681;-78
2024/02/02 07:48:05;;;;;;;11.20;3.60;;;;;;;1.97;70.59;99656.48;107474;1253;60855;-79
2024/02/02 07:50:34;;;;;;;9.80;3.30;;;;;;;2.07;70.64;99660.91;108656;1254;58904;-78
2024/02/02 07:53:02;;;;;;;11.50;4.70;;;;;;;2.19;70.48;99660.36;107800;1259;73867;-78
2024/02/02 07:55:30;;;;;;;11.70;5.00;;;;;;;2.23;70.59;99663.22;106119;1259;68721;-77
2024/02/02 07:57:57;;;;;;;15.40;5.10;;;;;;;2.27;70.60;99661.32;106027;1259;73573;-77
2024/02/02 08:00:29;;;;;;;11.20;3.80;;;;;;;2.36;70.51;99662.59;105870;1257;60550;-78
2024/02/02 08:02:57;;;;;;;16.00;4.40;;;;;;;2.43;70.26;99663.45;105849;1253;60578;-78
2024/02/02 08:05:29;;;;;;;12.20;3.80;;;;;;;2.47;69.94;99661.05;105955;1260;74768;-78
2024/02/02 08:07:57;;;;;;;11.60;4.00;;;;;;;2.50;69.65;99662.05;105977;1260;68735;-79
2024/02/02 08:10:24;;;;;;;14.20;4.60;;;;;;;2.54;69.78;99666.94;105925;1259;72971;-79
2024/02/02 08:12:52;;;;;;;15.80;5.00;;;;;;;2.61;69.25;99661.91;106077;1258;60877;-78
2024/02/02 08:15:19;;;;;;;12.20;4.90;;;;;;;2.67;69.03;99663.34;106024;1254;61077;-79
2024/02/02 08:17:47;;;;;;;13.50;4.80;;;;;;;2.77;68.84;99663.41;106004;1253;72727;-78
2024/02/02 08:20:15;;;;;;;10.60;4.10;;;;;;;2.86;68.40;99665.52;106015;1260;69267;-78
2024/02/02 08:22:46;;;;;;;11.90;4.80;;;;;;;2.90;67.95;99664.02;105962;1257;71193;-78
2024/02/02 08:25:14;;;;;;;8.30;3.60;;;;;;;2.93;67.75;99669.67;105979;1259;60638;-78
2024/02/02 08:27:41;;;;;;;9.40;3.40;;;;;;;2.94;66.81;99675.20;105852;1255;60449;-78
2024/02/02 08:30:11;;;;;;;16.60;3.50;;;;;;;2.96;67.06;99675.64;105737;1258;73298;-78
2024/02/02 08:32:39;;;;;;;10.00;3.50;;;;;;;2.99;66.52;99677.64;105984;1257;70815;-79
2024/02/02 08:35:07;;;;;;;13.80;3.20;;;;;;;3.02;66.49;99680.71;106038;1254;72686;-79
2024/02/02 08:37:35;;;;;;;10.70;3.30;;;;;;;3.08;66.59;99684.30;106002;1259;61625;-77
2024/02/02 08:40:05;;;;;;;11.40;3.70;;;;;;;3.16;66.60;99682.21;105840;1259;60161;-78
2024/02/02 08:42:32;;;;;;;6.60;3.60;;;;;;;3.25;65.69;99682.59;106024;1260;74424;-78
2024/02/02 08:45:01;;;;;;;9.50;2.80;;;;;;;3.25;65.03;99677.64;106422;1260;70220;-77
2024/02/02 08:47:34;;;;;;;6.20;2.70;;;;;;;3.23;65.40;99681.34;107422;1251;73913;-78
2024/02/02 08:50:04;;;;;;;10.10;3.10;;;;;;;3.22;65.36;99682.44;108888;1254;60281;-78
2024/02/02 08:52:38;;;;;;;10.20;3.50;;;;;;;3.24;65.58;99686.71;108095;1260;58837;-78
2024/02/02 08:55:06;;;;;;;10.70;3.00;;;;;;;3.23;65.51;99688.52;106607;1260;76160;-79
2024/02/02 08:58:03;;;;;;;8.40;3.00;;;;;;;3.23;65.54;99693.42;106454;1251;70530;-80
2024/02/02 09:00:38;;;;;;;11.90;3.50;;;;;;;3.23;65.33;99696.89;105930;1254;72252;-77
2024/02/02 09:03:31;;;;;;;6.80;3.00;;;;;;;3.20;65.73;99695.71;106106;1259;60443;-79
2024/02/02 09:06:01;;;;;;;6.70;2.90;;;;;;;3.19;65.57;99696.88;106217;1257;62295;-78
2024/02/02 09:08:33;;;;;;;10.70;4.40;;;;;;;3.19;65.71;99695.83;106056;1257;73989;-76
2024/02/02 09:11:02;;;;;;;9.10;3.00;;;;;;;3.20;65.55;99693.16;106443;1253;69598;-78
2024/02/02 09:13:30;;;;;;;11.10;3.50;;;;;;;3.18;65.81;99699.45;106433;1260;72629;-78
2024/02/02 09:15:58;;;;;;;9.20;3.60;;;;;;;3.19;65.64;99695.33;106677;1256;60515;-77
2024/02/02 09:18:38;;;;;;;9.10;3.10;;;;;;;3.20;65.72;99692.45;106770;1260;60991;-77
2024/02/02 09:21:09;;;;;;;8.90;3.90;;;;;;;3.20;65.31;99684.73;106501;1258;76125;-76
2024/02/02 09:23:39;;;;;;;8.70;3.80;;;;;;;3.20;64.88;99692.95;106269;1254;71445;-77
2024/02/02 09:26:11;;;;;;;9.00;2.80;;;;;;;3.20;64.20;99692.77;106078;1257;71401;-79
2024/02/02 09:28:40;;;;;;;9.50;3.10;;;;;;;3.21;63.98;99694.28;106041;1260;60442;-79
2024/02/02 09:31:10;;;;;;;8.80;3.30;;;;;;;3.23;63.74;99695.35;106045;1254;60550;-79
2024/02/02 09:33:41;;;;;;;8.70;3.20;;;;;;;3.24;63.55;99688.64;106151;1260;72716;-78
2024/02/02 09:36:09;;;;;;;10.60;3.20;;;;;;;3.23;63.43;99693.23;106275;1255;71225;-78
2024/02/02 09:38:37;;;;;;;12.00;4.50;;;;;;;3.25;63.15;99693.73;106103;1254;74735;-77
2024/02/02 09:41:05;;;;;;;8.50;3.10;;;;;;;3.25;62.56;99695.68;106151;1254;61460;-79
2024/02/02 09:43:35;;;;;;;8.60;3.10;;;;;;;3.21;62.47;99697.05;106052;1254;60451;-79
2024/02/02 09:46:23;;;;;;;8.60;3.20;;;;;;;3.18;62.52;99700.61;106579;1257;72727;-80
2024/02/02 09:48:59;;;;;;;7.30;2.70;;;;;;;3.21;62.71;99698.51;108925;1254;69537;-78
2024/02/02 09:51:34;;;;;;;9.10;3.50;;;;;;;3.30;62.54;99695.27;108575;1254;71060;-80
2024/02/02 09:54:05;;;;;;;9.10;2.80;;;;;;;3.57;60.98;99700.35;106716;1255;60485;-80
2024/02/02 09:56:46;;;;;;;6.50;2.50;;;;;;;3.91;59.91;99698.98;106608;1254;60624;-80
2024/02/02 09:59:26;;;;;;;7.20;3.30;;;;;;;4.14;59.10;99701.75;106201;1262;76163;-79
2024/02/02 10:01:54;;;;;;;12.70;2.60;;;;;;;4.24;58.00;99701.52;106233;1254;70095;-79
2024/02/02 10:04:55;;;;;;;8.30;2.90;;;;;;;4.18;57.35;99706.86;106028;1257;73472;-79
2024/02/02 10:07:47;;;;;;;9.70;3.60;;;;;;;4.10;57.60;99708.82;105786;1259;61023;-80
2024/02/02 10:10:24;;;;;;;6.50;2.40;;;;;;;4.01;57.53;99712.38;105835;1253;62149;-80
2024/02/02 10:13:13;;;;;;;5.60;2.60;;;;;;;3.97;57.68;99714.97;105895;1253;73811;-80
2024/02/02 10:15:50;;;;;;;9.20;2.80;;;;;;;4.15;58.00;99712.25;106004;1254;70849;-79
2024/02/02 10:18:23;;;;;;;7.30;2.20;;;;;;;4.51;57.41;99709.94;105868;1254;73212;-79
2024/02/02 10:21:03;;;;;;;6.50;2.40;;;;;;;5.09;56.80;99713.35;105867;1254;60453;-79
2024/02/02 10:23:52;;;;;;;10.20;3.00;;;;;;;5.64;53.69;99711.53;105964;1252;60421;-80
2024/02/02 10:26:24;;;;;;;4.00;2.30;;;;;;;5.86;53.20;99702.55;105857;1260;74047;-78
2024/02/02 10:28:54;;;;;;;9.10;3.10;;;;;;;5.95;52.75;99710.86;106613;1254;68867;-80
2024/02/02 10:31:34;;;;;;;9.80;2.30;;;;;;;5.96;52.93;99715.20;106126;1255;73837;-79
2024/02/02 10:34:05;;;;;;;6.70;2.90;;;;;;;5.87;52.63;99715.14;105998;1254;60492;-80
2024/02/02 10:37:00;;;;;;;7.50;2.80;;;;;;;5.69;52.91;99724.66;106303;1254;62501;-80
2024/02/02 10:39:46;;;;;;;5.90;2.40;;;;;;;5.43;53.18;99723.39;106190;1257;76130;-80
2024/02/02 10:42:34;;;;;;;9.40;2.60;;;;;;;5.28;53.84;99719.60;106152;1251;70493;-80
2024/02/02 10:45:26;;;;;;;7.10;2.40;;;;;;;5.12;53.89;99723.13;106530;1254;72523;-80
2024/02/02 10:48:37;;;;;;;7.00;3.00;;;;;;;4.88;53.58;99729.43;108263;1253;61624;-79
2024/02/02 10:51:28;;;;;;;6.60;2.10;;;;;;;4.68;54.03;99725.30;108877;1253;59219;-81
2024/02/02 10:54:09;;;;;;;9.00;2.40;;;;;;;4.88;54.34;99734.80;107021;1258;75000;-81
2024/02/02 10:56:43;;;;;;;8.10;2.50;;;;;;;5.22;54.25;99737.31;106587;1254;69175;-80
2024/02/02 10:59:45;;;;;;;8.50;2.50;;;;;;;5.54;53.54;99734.40;106257;1254;72549;-81
2024/02/02 11:02:19;;;;;;;9.20;2.40;;;;;;;5.88;52.43;99733.95;106136;1254;61621;-81
2024/02/02 11:05:05;;;;;;;7.50;2.60;;;;;;;6.35;52.18;99728.74;106337;1253;60433;-81
2024/02/02 11:07:35;;;;;;;9.20;2.40;;;;;;;6.73;50.80;99726.42;106175;1260;74475;-79
2024/02/02 11:10:07;;;;;;;9.70;3.00;;;;;;;6.72;50.65;99724.05;106186;1257;69242;-80
2024/02/02 11:12:43;;;;;;;8.30;2.70;;;;;;;6.68;50.58;99730.55;106133;1259;73947;-80
2024/02/02 11:15:48;;;;;;;7.20;2.70;;;;;;;6.59;50.46;99731.97;107239;1254;61902;-81
2024/02/02 11:18:30;;;;;;;6.10;2.20;;;;;;;6.48;49.50;99733.11;107386;1253;60448;-81
2024/02/02 11:21:04;;;;;;;4.70;2.40;;;;;;;6.70;49.61;99736.41;106156;1255;73971;-80
2024/02/02 11:23:34;;;;;;;;;;;;;;;7.03;48.39;99734.20;106103;1251;72683;-81
2024/02/02 11:26:25;;;;;;;4.60;2.20;;;;;;;7.38;47.46;99730.68;106017;1251;72493;-81
2024/02/02 11:29:29;;;;;;;5.70;2.20;;;;;;;7.85;47.62;99731.18;106218;1259;60553;-83
2024/02/02 11:32:00;;;;;;;5.60;2.60;;;;;;;8.24;45.10;99736.85;105452;1260;60366;-82
2024/02/02 11:34:28;;;;;;;8.70;2.60;;;;;;;8.28;45.71;99728.19;105975;1259;74370;-82
2024/02/02 11:37:10;;;;;;;5.30;2.10;;;;;;;8.54;44.59;99730.41;105950;1260;70131;-81
2024/02/02 11:39:51;;;;;;;5.60;2.20;;;;;;;8.65;43.99;99730.73;106084;1260;73873;-82
2024/02/02 11:42:18;;;;;;;7.60;2.90;;;;;;;8.44;44.07;99728.22;106174;1254;60495;-80
2024/02/02 11:44:46;;;;;;;6.70;2.30;;;;;;;8.10;44.46;99720.96;106861;1258;60527;-81
2024/02/02 11:47:13;;;;;;;6.90;2.30;;;;;;;7.78;44.76;99725.55;107370;1251;72507;-80
2024/02/02 11:49:46;;;;;;;5.00;2.10;;;;;;;7.53;45.22;99729.90;108842;1251;69283;-80
2024/02/02 11:52:23;;;;;;;6.00;2.60;;;;;;;7.27;45.54;99731.41;108492;1253;71762;-80